Time;durP1;ratioP1;P1;durP2;ratioP2;P2;SDS_P1;SDS_P2;PMS_P1;PMS_P2;Temp;Humidity;BMP_temperature;BMP_pressure;BME280_temperature;BME280_humidity;BME280_pressure;Samples;Min_cycle;Max_cycle;Signal;HPM_P1;HPM_P2
2022/06/17 00:03:22;;;;;;;0.40;0.40;;;;;;;20.57;57.93;97243.78;10372431;28;20288;-21
2022/06/17 00:08:37;;;;;;;0.25;0.25;;;;;;;20.57;58.15;97237.84;10372843;28;20567;-20
2022/06/17 00:13:37;;;;;;;0.70;0.32;;;;;;;20.41;57.73;97210.72;10371434;28;20038;-20
2022/06/17 00:18:38;;;;;;;0.40;0.40;;;;;;;20.55;57.81;97240.41;10371882;28;20436;-21
2022/06/17 00:23:39;;;;;;;0.22;0.22;;;;;;;20.72;59.92;97253.97;10371230;28;20037;-20
2022/06/17 00:28:39;;;;;;;0.20;0.20;;;;;;;20.87;58.41;97254.00;10371344;28;20409;-20
2022/06/17 00:33:40;;;;;;;0.20;0.20;;;;;;;20.65;58.98;97237.00;10371187;28;20626;-20
2022/06/17 00:38:41;;;;;;;0.20;0.20;;;;;;;20.64;58.26;97260.75;10370780;28;20061;-21
2022/06/17 00:43:44;;;;;;;0.30;0.30;;;;;;;20.62;58.19;97256.53;10377331;28;20112;-21
2022/06/17 00:49:14;;;;;;;0.65;0.30;;;;;;;20.60;58.04;97271.78;10411825;28;20096;-22
2022/06/17 00:54:28;;;;;;;0.50;0.50;;;;;;;20.59;58.04;97272.63;10407133;28;20037;-21
2022/06/17 00:59:30;;;;;;;1.15;0.70;;;;;;;20.58;58.08;97272.63;10384915;28;20037;-22
2022/06/17 01:04:39;;;;;;;0.38;0.38;;;;;;;20.58;57.98;97276.03;10368653;28;20037;-21
2022/06/17 01:10:00;;;;;;;0.52;0.40;;;;;;;20.57;57.92;97278.56;10368729;28;20144;-20
2022/06/17 01:15:02;;;;;;;0.47;0.47;;;;;;;20.60;59.03;97283.63;10368831;28;20408;-22
2022/06/17 01:20:09;;;;;;;0.20;0.20;;;;;;;20.80;59.25;97277.72;10368785;28;20029;-20
2022/06/17 01:25:21;;;;;;;0.20;0.20;;;;;;;20.81;58.62;97259.03;10368219;28;20507;-21
2022/06/17 01:30:36;;;;;;;0.40;0.30;;;;;;;20.70;58.33;97270.94;10368117;28;20030;-21
2022/06/17 01:35:49;;;;;;;0.35;0.30;;;;;;;20.64;58.12;97265.84;10367769;28;20025;-20
2022/06/17 01:40:52;;;;;;;0.30;0.30;;;;;;;20.61;58.09;97255.66;10369126;28;20037;-20
2022/06/17 01:46:00;;;;;;;0.40;0.40;;;;;;;20.59;58.01;97254.81;10393401;28;20172;-20
2022/06/17 01:51:03;;;;;;;0.45;0.40;;;;;;;20.59;57.90;97252.28;10405452;28;20541;-20
2022/06/17 01:56:11;;;;;;;0.30;0.30;;;;;;;20.59;57.93;97247.19;10404783;28;20866;-20
2022/06/17 02:01:12;;;;;;;1.17;0.57;;;;;;;20.58;58.02;97250.59;10367154;28;20034;-20
2022/06/17 02:06:33;;;;;;;0.40;0.40;;;;;;;20.58;57.99;97248.03;10366981;28;20026;-21
2022/06/17 02:11:34;;;;;;;0.80;0.57;;;;;;;20.71;59.71;97252.25;10367068;28;20033;-20
2022/06/17 02:16:50;;;;;;;0.30;0.30;;;;;;;20.87;58.28;97248.91;10383147;28;20030;-21
2022/06/17 02:22:23;;;;;;;0.32;0.32;;;;;;;20.71;58.41;97247.19;10367627;28;20069;-21
2022/06/17 02:27:28;;;;;;;0.30;0.30;;;;;;;20.66;58.00;97253.97;10366191;28;20133;-20
2022/06/17 02:32:31;;;;;;;0.30;0.30;;;;;;;20.62;57.96;97247.19;10366549;28;20116;-21
2022/06/17 02:37:32;;;;;;;0.25;0.25;;;;;;;20.61;58.00;97245.50;10367453;28;20388;-21
2022/06/17 02:42:37;;;;;;;0.50;0.50;;;;;;;20.61;58.23;97247.16;10381682;28;20029;-20
2022/06/17 02:47:38;;;;;;;0.50;0.50;;;;;;;20.58;58.07;97242.97;10402931;28;20442;-21
2022/06/17 02:52:40;;;;;;;0.40;0.40;;;;;;;20.56;57.87;97239.53;10401677;28;20044;-21
2022/06/17 02:57:46;;;;;;;0.40;0.40;;;;;;;20.59;57.91;97267.53;10389946;28;20034;-20
2022/06/17 03:02:51;;;;;;;0.45;0.45;;;;;;;20.64;60.57;97267.53;10368057;28;20095;-20
2022/06/17 03:07:53;;;;;;;0.17;0.17;;;;;;;20.84;58.95;97273.47;10373121;28;20048;-21
2022/06/17 03:13:09;;;;;;;0.32;0.25;;;;;;;20.78;58.51;97274.31;10372971;28;20084;-21
2022/06/17 03:18:11;;;;;;;0.30;0.30;;;;;;;20.69;58.02;97288.72;10373615;28;20054;-21
2022/06/17 03:23:50;;;;;;;0.40;0.35;;;;;;;20.63;57.71;97289.59;10373238;28;20124;-20
2022/06/17 03:28:51;;;;;;;0.40;0.40;;;;;;;20.62;57.95;97295.53;10344024;28;20061;-20
2022/06/17 03:33:59;;;;;;;0.40;0.40;;;;;;;20.58;57.87;97290.44;10373805;28;20030;-20
2022/06/17 03:39:05;;;;;;;0.45;0.45;;;;;;;20.61;57.82;97298.91;10374373;28;20034;-21
2022/06/17 03:44:13;;;;;;;0.43;0.43;;;;;;;20.60;58.01;97294.69;10384482;28;20029;-20
2022/06/17 03:49:19;;;;;;;0.38;0.38;;;;;;;20.60;57.91;97294.69;10412478;28;20610;-20
2022/06/17 03:54:20;;;;;;;;;;;;;;;20.60;58.13;97302.31;10407984;28;20621;-21
2022/06/17 03:59:28;;;;;;;0.50;0.50;;;;;;;20.78;59.40;97309.09;10386794;28;19913;-21
2022/06/17 04:04:34;;;;;;;0.13;0.13;;;;;;;20.85;58.62;97306.56;10371152;28;20802;-20
2022/06/17 04:09:38;;;;;;;0.30;0.30;;;;;;;20.73;58.30;97316.72;10372962;28;20052;-20
2022/06/17 04:15:00;;;;;;;0.40;0.40;;;;;;;20.67;57.94;97324.38;10385448;28;20456;-21
2022/06/17 04:20:26;;;;;;;0.40;0.40;;;;;;;20.62;57.84;97318.41;10370549;28;20029;-23
2022/06/17 04:25:43;;;;;;;0.45;0.45;;;;;;;20.60;57.89;97325.22;10369783;28;20036;-20
2022/06/17 04:30:52;;;;;;;0.50;0.50;;;;;;;20.61;57.89;97326.91;10372030;28;20026;-21
2022/06/17 04:36:14;;;;;;;0.73;0.50;;;;;;;20.60;57.69;97324.34;10369636;28;20021;-21
2022/06/17 04:41:17;;;;;;;0.40;0.40;;;;;;;20.59;57.94;97333.69;10370263;28;20096;-20
2022/06/17 04:46:36;;;;;;;0.43;0.43;;;;;;;20.59;57.91;97327.75;10397840;28;20547;-20
2022/06/17 04:51:37;;;;;;;0.22;0.22;;;;;;;20.72;60.08;97330.31;10398649;28;20033;-20
2022/06/17 04:56:46;;;;;;;0.30;0.30;;;;;;;20.89;58.77;97333.72;10401303;28;20026;-20
2022/06/17 05:01:51;;;;;;;0.35;0.30;;;;;;;20.76;58.31;97339.66;10368714;28;20038;-21
2022/06/17 05:07:10;;;;;;;0.30;0.30;;;;;;;20.69;58.11;97330.31;10369701;28;20049;-20
2022/06/17 05:12:22;;;;;;;0.30;0.30;;;;;;;20.64;57.86;97334.53;10384672;28;20034;-20
2022/06/17 05:17:23;;;;;;;0.38;0.38;;;;;;;20.63;57.78;97343.00;10368259;28;20076;-22
2022/06/17 05:22:31;;;;;;;0.40;0.40;;;;;;;20.60;57.95;97339.63;10367878;28;20025;-21
2022/06/17 05:27:33;;;;;;;0.40;0.40;;;;;;;20.60;57.97;97345.56;10367709;28;20069;-21
2022/06/17 05:32:33;;;;;;;0.40;0.40;;;;;;;20.58;57.63;97337.09;10368947;28;20032;-20
2022/06/17 05:37:34;;;;;;;1.80;0.70;;;;;;;20.60;57.84;97344.69;10367604;28;20056;-20
2022/06/17 05:42:38;;;;;;;0.60;0.60;;;;;;;20.60;58.18;97344.69;10366949;28;20403;-21
2022/06/17 05:47:41;;;;;;;0.20;0.20;;;;;;;20.81;59.09;97365.94;10406382;28;20033;-21
2022/06/17 05:53:02;;;;;;;0.20;0.20;;;;;;;20.82;58.71;97367.63;10383640;28;20042;-22
2022/06/17 05:58:20;;;;;;;0.40;0.30;;;;;;;20.71;57.92;97374.41;10383240;28;20030;-21
2022/06/17 06:03:25;;;;;;;0.50;0.40;;;;;;;20.65;58.03;97382.03;10366714;28;20060;-20
2022/06/17 06:08:27;;;;;;;0.30;0.30;;;;;;;20.64;57.65;97387.97;10366951;28;20040;-21
2022/06/17 06:13:28;;;;;;;0.50;0.40;;;;;;;20.63;58.21;97388.81;10366922;28;20030;-20
2022/06/17 06:18:34;;;;;;;0.50;0.45;;;;;;;20.62;58.13;97399.00;10382540;28;20041;-22
2022/06/17 06:23:39;;;;;;;0.40;0.40;;;;;;;20.61;57.82;97393.06;10371716;28;20092;-21
2022/06/17 06:28:41;;;;;;;0.32;0.32;;;;;;;20.59;57.91;97392.22;10365507;28;20034;-21
2022/06/17 06:33:52;;;;;;;0.40;0.40;;;;;;;20.61;58.01;97397.28;10365914;28;20038;-20
2022/06/17 06:38:53;;;;;;;0.30;0.30;;;;;;;20.77;58.98;97410.06;10370687;28;20527;-20
2022/06/17 06:43:55;;;;;;;0.30;0.30;;;;;;;20.91;58.15;97405.88;10382480;28;20068;-20
2022/06/17 06:49:15;;;;;;;0.40;0.38;;;;;;;20.77;58.58;97409.19;10416214;28;20399;-20
2022/06/17 06:54:15;;;;;;;0.30;0.30;;;;;;;20.69;57.85;97401.56;10413176;28;20033;-21
2022/06/17 06:59:16;;;;;;;0.30;0.30;;;;;;;20.65;57.87;97402.38;10389184;28;20036;-20
2022/06/17 07:04:16;;;;;;;0.40;0.40;;;;;;;20.63;57.95;97399.00;10373000;28;20034;-20
2022/06/17 07:09:17;;;;;;;0.40;0.40;;;;;;;20.63;57.82;97398.16;10388563;28;20034;-20
2022/06/17 07:14:17;;;;;;;0.40;0.40;;;;;;;20.60;58.00;97393.03;10373834;28;20052;-21
2022/06/17 07:19:19;;;;;;;0.53;0.50;;;;;;;20.60;57.65;97395.59;10374013;28;20038;-20
2022/06/17 07:24:20;;;;;;;0.52;0.43;;;;;;;20.60;57.84;97395.59;10374143;28;20412;-23
2022/06/17 07:29:20;;;;;;;0.57;0.57;;;;;;;20.60;58.32;97386.28;10373547;28;20048;-22
2022/06/17 07:34:20;;;;;;;0.30;0.27;;;;;;;20.82;58.84;97388.00;10373228;28;20302;-21
2022/06/17 07:44:40;;;;;;;0.30;0.30;;;;;;;20.73;57.85;97387.16;10387201;28;20116;-20
2022/06/17 07:49:40;;;;;;;0.20;0.20;;;;;;;20.67;57.86;97382.91;10410971;28;20122;-20
2022/06/17 07:54:41;;;;;;;0.20;0.20;;;;;;;20.64;57.96;97387.97;10411005;28;20557;-20
2022/06/17 07:59:41;;;;;;;0.40;0.30;;;;;;;20.62;58.02;97384.56;10381191;28;20053;-21
2022/06/17 08:04:43;;;;;;;0.50;0.50;;;;;;;20.63;57.58;97382.91;10372416;28;20053;-20
2022/06/17 08:09:43;;;;;;;0.50;0.50;;;;;;;20.63;57.78;97381.19;10372502;28;20484;-20
2022/06/17 08:14:46;;;;;;;0.60;0.40;;;;;;;20.63;57.64;97375.25;10372186;28;20385;-21
2022/06/17 08:19:48;;;;;;;0.35;0.35;;;;;;;20.57;57.88;97370.97;10372478;28;20037;-20
2022/06/17 08:24:48;;;;;;;0.38;0.38;;;;;;;20.76;59.76;97371.88;10371853;28;20049;-21
2022/06/17 08:29:51;;;;;;;0.30;0.30;;;;;;;20.90;58.29;97370.22;10372013;28;20176;-20
2022/06/17 08:34:51;;;;;;;0.22;0.22;;;;;;;20.82;58.43;97377.81;10371105;28;20034;-20
2022/06/17 08:39:52;;;;;;;0.30;0.30;;;;;;;20.72;57.98;97371.00;10370951;28;20503;-20
2022/06/17 08:45:15;;;;;;;0.20;0.20;;;;;;;20.69;57.73;97381.19;10387153;28;20116;-21
2022/06/17 08:50:25;;;;;;;0.47;0.40;;;;;;;20.68;58.01;97369.34;10412366;28;20067;-19
2022/06/17 08:55:57;;;;;;;0.40;0.40;;;;;;;20.65;57.67;97376.94;10411325;28;20025;-21
2022/06/17 09:01:12;;;;;;;0.50;0.50;;;;;;;20.65;57.72;97369.31;10370528;28;20143;-20
2022/06/17 09:06:51;;;;;;;0.35;0.35;;;;;;;20.63;57.57;97363.38;10370711;28;20432;-22
2022/06/17 09:12:20;;;;;;;0.50;0.50;;;;;;;20.58;57.70;97343.84;10358162;28;20054;-21
2022/06/17 09:17:34;;;;;;;0.35;0.32;;;;;;;20.72;59.52;97354.91;10369778;28;20583;-22
2022/06/17 09:22:40;;;;;;;0.20;0.20;;;;;;;20.91;58.67;97360.06;10369547;28;20520;-20
2022/06/17 09:27:48;;;;;;;0.25;0.25;;;;;;;20.81;58.59;97350.66;10369331;28;20038;-20
2022/06/17 09:32:54;;;;;;;0.40;0.40;;;;;;;20.75;58.00;97349.81;10369578;28;20034;-20
2022/06/17 09:38:18;;;;;;;;;;;;;;;20.72;57.73;97349.81;10369687;28;20034;-20
2022/06/17 09:43:36;;;;;;;0.28;0.28;;;;;;;20.65;57.91;97346.41;10368621;28;20375;-20
2022/06/17 09:48:57;;;;;;;0.50;0.50;;;;;;;20.67;57.63;97344.72;10409418;28;20463;-22
2022/06/17 09:54:10;;;;;;;0.40;0.40;;;;;;;20.66;58.11;97340.50;10380809;28;20047;-22
2022/06/17 09:59:18;;;;;;;0.50;0.40;;;;;;;20.65;58.09;97338.78;10368681;28;20088;-20
2022/06/17 10:04:19;;;;;;;0.30;0.30;;;;;;;20.68;57.93;97343.03;10368000;28;20044;-20
2022/06/17 10:09:26;;;;;;;0.40;0.40;;;;;;;20.72;60.88;97340.47;10368071;28;20109;-20
2022/06/17 10:14:35;;;;;;;0.30;0.30;;;;;;;20.91;58.77;97337.16;10366808;28;20404;-22
2022/06/17 10:20:03;;;;;;;0.20;0.20;;;;;;;20.85;58.58;97337.09;10367718;28;20077;-21
2022/06/17 10:25:25;;;;;;;0.43;0.43;;;;;;;20.76;58.11;97346.41;10367089;28;20420;-21
2022/06/17 10:30:45;;;;;;;0.30;0.30;;;;;;;20.72;58.03;97334.56;10367308;28;20045;-21
2022/06/17 10:35:47;;;;;;;0.35;0.35;;;;;;;20.69;57.99;97335.41;10367253;28;20399;-21
2022/06/17 10:40:48;;;;;;;0.40;0.40;;;;;;;20.70;57.90;97326.06;10367303;28;20030;-20
2022/06/17 10:45:49;;;;;;;0.45;0.45;;;;;;;20.71;58.02;97320.97;10391537;28;20464;-21
2022/06/17 10:50:49;;;;;;;0.40;0.40;;;;;;;20.72;58.13;97320.13;10402552;28;20478;-21
2022/06/17 10:55:55;;;;;;;0.50;0.50;;;;;;;20.70;58.11;97326.91;10406881;28;20040;-21
2022/06/17 11:01:11;;;;;;;0.50;0.50;;;;;;;20.74;58.93;97327.78;10367246;28;20037;-22
2022/06/17 11:06:20;;;;;;;0.40;0.40;;;;;;;20.93;59.01;97330.34;10366805;28;20049;-21
2022/06/17 11:16:52;;;;;;;0.38;0.38;;;;;;;20.82;58.38;97321.81;10366891;28;20033;-20
2022/06/17 11:21:57;;;;;;;0.30;0.30;;;;;;;20.79;58.55;97316.75;10367325;28;20081;-21
2022/06/17 11:27:12;;;;;;;0.68;0.40;;;;;;;20.76;58.16;97316.75;10373794;28;20489;-20
2022/06/17 11:32:27;;;;;;;0.50;0.50;;;;;;;20.75;57.98;97315.06;10373914;28;20381;-22
2022/06/17 11:37:33;;;;;;;0.40;0.40;;;;;;;20.77;58.58;97318.44;10373612;28;20117;-21
2022/06/17 11:42:33;;;;;;;0.40;0.40;;;;;;;20.78;58.37;97317.59;10373425;28;20030;-21
2022/06/17 11:47:35;;;;;;;1.05;0.60;;;;;;;20.76;58.30;97316.75;10411958;28;20038;-20
2022/06/17 11:52:37;;;;;;;0.40;0.40;;;;;;;20.78;58.57;97319.28;10406633;28;20041;-20
2022/06/17 11:57:40;;;;;;;0.30;0.30;;;;;;;20.90;59.78;97304.06;10398599;28;20030;-22
2022/06/17 12:03:02;;;;;;;0.20;0.20;;;;;;;21.00;58.14;97296.41;10373075;28;20182;-20
2022/06/17 12:08:33;;;;;;;0.68;0.47;;;;;;;20.86;58.42;97293.03;10372398;28;20030;-20
2022/06/17 12:13:45;;;;;;;0.32;0.32;;;;;;;20.81;58.16;97294.66;10368362;28;20049;-22
2022/06/17 12:18:53;;;;;;;0.30;0.30;;;;;;;20.79;58.05;97290.47;10374171;28;20086;-20
2022/06/17 12:24:23;;;;;;;0.60;0.60;;;;;;;20.78;58.13;97302.31;10374412;28;20120;-21
2022/06/17 12:29:33;;;;;;;0.45;0.45;;;;;;;20.77;58.17;97303.16;10374529;28;20464;-21
2022/06/17 12:34:49;;;;;;;0.65;0.65;;;;;;;20.79;58.45;97303.19;10373324;28;20033;-21
2022/06/17 12:39:57;;;;;;;0.50;0.50;;;;;;;20.79;58.29;97301.47;10374248;28;20388;-21
2022/06/17 12:45:28;;;;;;;0.47;0.47;;;;;;;20.78;58.09;97301.47;10373707;28;20053;-21
2022/06/17 12:56:09;;;;;;;0.13;0.13;;;;;;;21.01;58.67;97293.00;10370444;28;20404;-21
2022/06/17 13:01:20;;;;;;;0.40;0.40;;;;;;;20.90;58.82;97293.88;10370403;28;20033;-22
2022/06/17 13:06:45;;;;;;;0.30;0.30;;;;;;;20.83;57.94;97287.91;10370219;28;20062;-20
2022/06/17 13:12:09;;;;;;;0.47;0.47;;;;;;;20.80;58.05;97285.34;10370151;28;20037;-21
2022/06/17 13:17:17;;;;;;;0.50;0.50;;;;;;;20.78;57.84;97279.41;10370122;28;20045;-20
2022/06/17 13:22:21;;;;;;;0.57;0.57;;;;;;;20.78;57.99;97279.41;10369687;28;20451;-20
2022/06/17 13:27:34;;;;;;;0.32;0.32;;;;;;;20.77;58.14;97272.63;10369297;28;20041;-20
2022/06/17 13:32:49;;;;;;;0.52;0.52;;;;;;;20.77;57.99;97271.78;10369011;28;20053;-20
2022/06/17 13:37:55;;;;;;;0.40;0.40;;;;;;;20.76;57.91;97268.41;10369159;28;20032;-21
2022/06/17 13:43:02;;;;;;;0.30;0.30;;;;;;;20.90;59.82;97259.06;10369369;28;20266;-20
2022/06/17 13:48:02;;;;;;;0.20;0.20;;;;;;;21.03;58.31;97258.22;10369057;28;20107;-22
2022/06/17 13:53:34;;;;;;;0.20;0.20;;;;;;;20.89;58.29;97262.47;10368261;28;20045;-22
2022/06/17 13:58:55;;;;;;;0.20;0.20;;;;;;;20.84;58.21;97248.00;10368918;28;20041;-21
2022/06/17 14:03:59;;;;;;;0.50;0.50;;;;;;;20.80;58.04;97242.06;10368132;28;20037;-20
2022/06/17 14:09:21;;;;;;;0.30;0.30;;;;;;;20.79;57.90;97240.38;10368706;28;20397;-23
2022/06/17 14:14:22;;;;;;;0.57;0.57;;;;;;;20.78;57.96;97236.16;10367646;28;20049;-22
2022/06/17 14:19:30;;;;;;;0.80;0.80;;;;;;;20.77;57.93;97226.81;10368609;28;20041;-21
2022/06/17 14:24:42;;;;;;;0.50;0.50;;;;;;;20.77;57.69;97231.91;10367730;28;20491;-22
2022/06/17 14:29:42;;;;;;;0.65;0.50;;;;;;;20.76;58.40;97229.34;10367851;28;20044;-20
2022/06/17 14:34:46;;;;;;;0.30;0.30;;;;;;;20.89;60.08;97226.81;10367598;28;20373;-20
2022/06/17 14:39:53;;;;;;;0.28;0.28;;;;;;;21.07;58.66;97231.06;10367803;28;20133;-21
2022/06/17 14:45:02;;;;;;;0.30;0.30;;;;;;;20.94;58.96;97231.91;10383714;28;20229;-21
2022/06/17 14:50:09;;;;;;;0.20;0.20;;;;;;;20.86;58.43;97223.44;10408729;28;20068;-21
2022/06/17 14:55:21;;;;;;;0.35;0.35;;;;;;;20.82;57.89;97226.81;10367361;28;20026;-21
2022/06/17 15:00:24;;;;;;;0.80;0.52;;;;;;;20.78;58.04;97228.50;10373000;28;20428;-22
2022/06/17 15:05:32;;;;;;;0.30;0.30;;;;;;;20.79;57.91;97234.47;10374915;28;20401;-23
2022/06/17 15:10:35;;;;;;;0.77;0.70;;;;;;;20.79;57.69;97234.47;10374939;28;20120;-20
2022/06/17 15:15:39;;;;;;;0.35;0.30;;;;;;;20.79;58.08;97227.66;10374500;28;20042;-21
2022/06/17 15:20:42;;;;;;;0.40;0.40;;;;;;;20.74;57.79;97216.66;10374761;28;20037;-20
2022/06/17 15:26:04;;;;;;;0.55;0.55;;;;;;;20.82;59.74;97220.00;10374352;28;20037;-21
2022/06/17 15:31:18;;;;;;;0.30;0.30;;;;;;;21.03;58.96;97220.03;10374709;28;20029;-20
2022/06/17 15:36:22;;;;;;;0.10;0.10;;;;;;;20.99;59.18;97218.31;10373965;28;20030;-20
2022/06/17 15:41:38;;;;;;;0.28;0.28;;;;;;;20.91;58.76;97224.28;10373802;28;20123;-20
2022/06/17 15:46:39;;;;;;;0.30;0.30;;;;;;;20.86;58.17;97216.66;10404944;28;20491;-21
2022/06/17 15:51:45;;;;;;;0.50;0.50;;;;;;;20.84;58.31;97222.56;10403266;28;20029;-20
2022/06/17 15:56:50;;;;;;;0.53;0.53;;;;;;;20.83;57.99;97224.28;10405245;28;20498;-21
2022/06/17 16:02:16;;;;;;;0.60;0.40;;;;;;;20.83;57.96;97220.88;10373190;28;20034;-21
2022/06/17 16:07:24;;;;;;;0.25;0.25;;;;;;;20.81;58.03;97225.97;10372821;28;20033;-20
2022/06/17 16:12:25;;;;;;;0.40;0.40;;;;;;;20.82;57.95;97225.09;10371080;28;20133;-21
2022/06/17 16:17:30;;;;;;;0.28;0.28;;;;;;;20.82;58.41;97219.19;10372234;28;20129;-21
2022/06/17 16:22:35;;;;;;;0.32;0.30;;;;;;;21.00;59.43;97230.22;10372246;28;20108;-22
2022/06/17 16:27:54;;;;;;;0.10;0.10;;;;;;;21.04;59.06;97228.53;10371499;28;20037;-20
2022/06/17 16:32:54;;;;;;;0.45;0.45;;;;;;;20.90;58.73;97225.97;10371188;28;20082;-20
2022/06/17 16:37:55;;;;;;;0.93;0.50;;;;;;;20.84;57.84;97228.50;10371718;28;20237;-22
2022/06/17 16:48:14;;;;;;;1.48;0.20;;;;;;;20.81;57.98;97225.97;10371205;28;20037;-22
2022/06/17 16:53:14;;;;;;;0.40;0.30;;;;;;;20.82;58.20;97231.91;10396469;28;20041;-22
2022/06/17 16:58:14;;;;;;;0.40;0.40;;;;;;;20.80;57.81;97226.81;10391446;28;20037;-22
2022/06/17 17:03:16;;;;;;;0.60;0.50;;;;;;;20.80;57.77;97224.25;10370280;28;20037;-21
2022/06/17 17:08:18;;;;;;;0.38;0.38;;;;;;;20.81;58.01;97228.50;10369914;28;20084;-21
2022/06/17 17:13:19;;;;;;;0.40;0.40;;;;;;;20.95;60.27;97231.06;10369629;28;20038;-20
2022/06/17 17:18:20;;;;;;;0.28;0.28;;;;;;;21.09;58.54;97229.34;10369774;28;20053;-20
2022/06/17 17:23:23;;;;;;;0.77;0.30;;;;;;;20.94;58.80;97232.78;10368881;28;20179;-22
2022/06/17 17:28:25;;;;;;;0.22;0.22;;;;;;;20.86;58.02;97231.94;10369282;28;20119;-21
2022/06/17 17:33:26;;;;;;;0.57;0.57;;;;;;;20.85;57.91;97235.31;10369111;28;20037;-21
2022/06/17 17:38:27;;;;;;;0.55;0.55;;;;;;;20.83;57.94;97231.91;10369200;28;20185;-21
2022/06/17 17:43:27;;;;;;;0.45;0.45;;;;;;;20.83;57.94;97237.00;10373882;28;20442;-21
2022/06/17 17:48:28;;;;;;;1.63;0.57;;;;;;;20.83;57.95;97241.22;10409693;28;20048;-21
2022/06/17 17:53:28;;;;;;;0.40;0.40;;;;;;;20.81;57.96;97233.59;10381197;28;20041;-21
2022/06/17 17:58:29;;;;;;;0.40;0.40;;;;;;;20.81;57.78;97236.13;10368674;28;20033;-21
2022/06/17 18:03:29;;;;;;;0.52;0.43;;;;;;;20.87;60.24;97233.63;10367708;28;20072;-21
2022/06/17 18:08:29;;;;;;;0.23;0.23;;;;;;;21.08;59.16;97227.66;10367795;28;20045;-21
2022/06/17 18:13:30;;;;;;;0.20;0.20;;;;;;;21.00;59.07;97225.13;10367469;28;20809;-21
2022/06/17 18:18:31;;;;;;;0.50;0.50;;;;;;;20.90;58.35;97222.59;10368146;28;20091;-20
2022/06/17 18:23:31;;;;;;;0.20;0.20;;;;;;;20.87;57.98;97232.78;10367804;28;20042;-21
2022/06/17 18:28:33;;;;;;;0.63;0.40;;;;;;;20.85;57.90;97235.31;10366294;28;20091;-21
2022/06/17 18:33:34;;;;;;;3.30;0.80;;;;;;;20.83;57.93;97236.16;10366939;28;20277;-17
2022/06/17 18:38:36;;;;;;;0.60;0.60;;;;;;;20.82;57.77;97240.38;10367842;28;20038;-20
2022/06/17 18:43:36;;;;;;;0.40;0.40;;;;;;;20.80;57.91;97237.00;10372589;28;20037;-21
2022/06/17 18:48:38;;;;;;;0.40;0.40;;;;;;;20.81;57.87;97233.59;10408659;28;20033;-20
2022/06/17 18:53:38;;;;;;;1.08;0.50;;;;;;;20.80;57.66;97231.06;10401488;28;20038;-22
2022/06/17 18:58:38;;;;;;;0.30;0.30;;;;;;;21.00;59.29;97240.41;10384761;28;20121;-21
2022/06/17 19:03:40;;;;;;;0.10;0.10;;;;;;;21.08;58.54;97232.75;10366527;28;20034;-22
2022/06/17 19:19:20;;;;;;;0.30;0.30;;;;;;;20.82;57.92;97220.00;10366340;28;20382;-20
2022/06/17 19:24:21;;;;;;;0.35;0.35;;;;;;;20.68;58.14;97201.38;10366178;28;20045;-21
2022/06/17 19:29:23;;;;;;;0.40;0.40;;;;;;;20.82;57.80;97232.75;10366698;28;20493;-21
2022/06/17 19:34:26;;;;;;;0.40;0.40;;;;;;;20.83;57.75;97231.91;10366208;28;20061;-20
2022/06/17 19:39:27;;;;;;;0.65;0.50;;;;;;;20.82;57.86;97240.38;10366233;28;20112;-20
2022/06/17 19:44:31;;;;;;;0.60;0.60;;;;;;;20.81;57.71;97243.78;10381385;28;20072;-20
2022/06/17 19:49:38;;;;;;;0.30;0.20;;;;;;;20.96;59.78;97246.34;10405003;28;20037;-22
2022/06/17 19:54:39;;;;;;;0.20;0.20;;;;;;;21.12;58.07;97250.56;10410925;28;20186;-21
2022/06/17 19:59:39;;;;;;;0.30;0.30;;;;;;;20.98;58.73;97264.16;10383253;28;20235;-20
2022/06/17 20:04:40;;;;;;;0.30;0.30;;;;;;;20.91;58.30;97270.97;10372880;28;20638;-20
2022/06/17 20:09:41;;;;;;;0.40;0.40;;;;;;;20.86;57.91;97272.66;10372605;28;20101;-20
2022/06/17 20:14:42;;;;;;;0.50;0.50;;;;;;;20.86;57.76;97270.13;10372450;28;20037;-21
2022/06/17 20:19:44;;;;;;;0.85;0.52;;;;;;;20.84;58.10;97269.25;10373103;28;20037;-21
2022/06/17 20:24:46;;;;;;;0.52;0.52;;;;;;;20.83;57.80;97277.72;10371366;28;20093;-21
2022/06/17 20:29:47;;;;;;;0.40;0.40;;;;;;;20.81;57.91;97266.69;10371081;28;20037;-21
2022/06/17 20:34:48;;;;;;;0.50;0.50;;;;;;;20.83;57.87;97272.63;10371592;28;20404;-21
2022/06/17 20:39:49;;;;;;;0.47;0.45;;;;;;;20.88;60.52;97273.50;10372200;28;20125;-20
2022/06/17 20:50:09;;;;;;;0.30;0.30;;;;;;;21.01;58.93;97272.66;10406656;28;20025;-21
2022/06/17 20:55:22;;;;;;;0.40;0.40;;;;;;;20.93;57.99;97271.81;10414109;28;20041;-23
2022/06/17 21:00:26;;;;;;;0.47;0.40;;;;;;;20.88;58.05;97265.84;10376656;28;20116;-21
2022/06/17 21:05:29;;;;;;;0.40;0.40;;;;;;;20.87;57.91;97256.53;10372043;28;20416;-26
2022/06/17 21:10:36;;;;;;;0.20;0.20;;;;;;;20.87;57.99;97269.25;10371164;28;20037;-21
2022/06/17 21:15:37;;;;;;;0.50;0.50;;;;;;;20.86;57.98;97257.38;10372683;28;20077;-22
2022/06/17 21:20:40;;;;;;;0.77;0.77;;;;;;;20.86;58.00;97264.16;10370441;28;20088;-21
2022/06/17 21:25:40;;;;;;;1.30;0.43;;;;;;;20.84;58.06;97256.50;10369862;28;20061;-21
2022/06/17 21:30:42;;;;;;;0.57;0.57;;;;;;;20.85;58.42;97255.66;10370171;28;20492;-23
2022/06/17 21:35:46;;;;;;;0.40;0.20;;;;;;;21.06;59.61;97250.56;10369138;28;20523;-20
2022/06/17 21:40:52;;;;;;;0.25;0.25;;;;;;;21.07;58.80;97251.41;10370301;28;20033;-23
2022/06/17 21:45:53;;;;;;;0.40;0.40;;;;;;;20.95;58.46;97246.31;10409435;28;20036;-20
2022/06/17 21:50:55;;;;;;;0.20;0.20;;;;;;;20.92;58.11;97257.38;10404469;28;20033;-22
2022/06/17 21:56:01;;;;;;;0.40;0.40;;;;;;;20.89;57.91;97265.00;10408493;28;20029;-21
2022/06/17 22:01:02;;;;;;;0.40;0.40;;;;;;;20.87;57.77;97250.63;10369107;28;20411;-20
2022/06/17 22:06:05;;;;;;;0.40;0.40;;;;;;;20.87;57.90;97250.63;10368219;28;20037;-22
2022/06/17 22:11:05;;;;;;;0.40;0.40;;;;;;;20.86;58.00;97257.38;10368196;28;20103;-20
2022/06/17 22:16:06;;;;;;;0.40;0.40;;;;;;;20.85;58.03;97262.44;10368221;28;20029;-22
2022/06/17 22:21:10;;;;;;;0.40;0.40;;;;;;;20.85;58.22;97259.88;10367935;28;20287;-22
2022/06/17 22:26:12;;;;;;;0.40;0.40;;;;;;;21.02;59.75;97259.06;10367997;28;20033;-21
2022/06/17 22:31:17;;;;;;;0.17;0.17;;;;;;;21.12;58.55;97264.97;10367986;28;20061;-21
2022/06/17 22:36:19;;;;;;;0.20;0.20;;;;;;;20.99;58.21;97269.22;10367855;28;20030;-20
2022/06/17 22:41:19;;;;;;;0.50;0.50;;;;;;;20.93;57.98;97274.34;10367733;28;20049;-20
2022/06/17 22:46:20;;;;;;;0.30;0.30;;;;;;;20.91;57.71;97276.06;10395289;28;20053;-20
2022/06/17 22:51:21;;;;;;;0.65;0.50;;;;;;;20.87;57.84;97276.91;10405677;28;20332;-20
2022/06/17 22:56:21;;;;;;;0.50;0.50;;;;;;;20.87;58.11;97266.72;10403543;28;20040;-21
2022/06/17 23:01:26;;;;;;;0.80;0.40;;;;;;;20.85;57.98;97263.28;10367240;28;20510;-21
2022/06/17 23:06:26;;;;;;;0.43;0.43;;;;;;;20.85;57.87;97270.06;10366867;28;20042;-21
2022/06/17 23:11:27;;;;;;;0.50;0.47;;;;;;;20.86;57.96;97277.75;10367287;28;20038;-21
2022/06/17 23:16:27;;;;;;;0.20;0.20;;;;;;;20.94;59.94;97270.97;10366927;28;20624;-21
2022/06/17 23:21:34;;;;;;;0.30;0.30;;;;;;;21.14;58.66;97266.66;10372425;28;20496;-20
2022/06/17 23:26:35;;;;;;;0.30;0.30;;;;;;;21.05;58.59;97266.69;10374649;28;20331;-21
2022/06/17 23:31:40;;;;;;;0.50;0.50;;;;;;;20.97;58.22;97282.84;10374913;28;20305;-22
2022/06/17 23:36:40;;;;;;;0.32;0.30;;;;;;;20.92;58.04;97277.75;10373616;28;20030;-22
2022/06/17 23:41:41;;;;;;;0.40;0.40;;;;;;;20.92;57.73;97282.84;10374355;28;20044;-21
2022/06/17 23:46:42;;;;;;;0.60;0.60;;;;;;;20.90;57.79;97279.44;10404542;28;20068;-20
2022/06/17 23:51:44;;;;;;;0.73;0.73;;;;;;;20.87;57.96;97269.25;10412589;28;20403;-20
2022/06/17 23:56:44;;;;;;;0.32;0.32;;;;;;;20.87;57.71;97266.72;10406357;28;20026;-20
